createdAt,value
2023-02-06T00:00:38.689Z,47.35
2023-02-06T00:03:05.819Z,43.65
2023-02-06T00:05:33.149Z,50.90
2023-02-06T00:08:00.138Z,54.90
2023-02-06T00:10:27.278Z,46.03
2023-02-06T00:12:54.269Z,41.75
2023-02-06T00:15:21.604Z,51.88
2023-02-06T00:17:48.415Z,49.20
2023-02-06T00:20:15.228Z,45.20
2023-02-06T00:22:42.224Z,48.47
2023-02-06T00:25:09.184Z,46.70
2023-02-06T00:27:36.429Z,52.38
2023-02-06T00:30:04.948Z,38.72
2023-02-06T00:32:31.889Z,56.22
2023-02-06T00:34:58.706Z,46.00
2023-02-06T00:37:25.473Z,43.92
2023-02-06T00:39:52.201Z,53.15
2023-02-06T00:42:18.939Z,42.42
2023-02-06T00:44:45.691Z,60.90
2023-02-06T00:47:12.448Z,48.28
2023-02-06T00:49:39.168Z,47.60
2023-02-06T00:52:05.927Z,56.45
2023-02-06T00:54:32.706Z,53.67
2023-02-06T00:56:59.464Z,46.85
2023-02-06T00:59:26.357Z,51.63
2023-02-06T01:01:53.100Z,49.13
2023-02-06T01:04:20.039Z,52.83
2023-02-06T01:06:46.855Z,48.70
2023-02-06T01:09:13.581Z,45.47
2023-02-06T01:11:40.355Z,47.22
2023-02-06T01:14:07.146Z,57.30
2023-02-06T01:16:33.879Z,47.40
2023-02-06T01:19:00.684Z,48.58
2023-02-06T01:21:27.947Z,56.55
2023-02-06T01:23:55.214Z,40.22
2023-02-06T01:26:25.680Z,47.75
2023-02-06T01:28:53.053Z,49.00
2023-02-06T01:31:26.639Z,47.17
2023-02-06T01:33:54.880Z,47.13
2023-02-06T01:36:22.601Z,44.35
2023-02-06T01:38:49.691Z,44.80
2023-02-06T01:41:18.275Z,48.58
2023-02-06T01:44:12.858Z,53.50
2023-02-06T01:46:41.439Z,44.17
2023-02-06T01:49:13.590Z,59.35
2023-02-06T01:51:41.001Z,46.50
2023-02-06T01:54:09.554Z,40.92
2023-02-06T01:56:51.146Z,50.35
2023-02-06T01:59:18.144Z,46.90
2023-02-06T02:01:45.425Z,48.55
2023-02-06T02:04:17.562Z,51.97
2023-02-06T02:06:47.578Z,40.58
2023-02-06T02:09:14.454Z,59.83
2023-02-06T02:11:43.106Z,53.33
2023-02-06T02:14:12.891Z,47.65
2023-02-06T02:17:08.678Z,49.03
2023-02-06T02:20:08.683Z,44.17
2023-02-06T02:22:50.127Z,44.03
2023-02-06T02:25:54.180Z,49.72
2023-02-06T02:28:43.790Z,43.72
2023-02-06T02:31:59.871Z,55.88
2023-02-06T02:34:57.000Z,43.83
2023-02-06T02:37:29.717Z,53.05
2023-02-06T02:40:18.710Z,47.78
2023-02-06T02:42:57.313Z,52.20
2023-02-06T02:45:43.333Z,49.67
2023-02-06T02:48:20.814Z,53.72
2023-02-06T02:50:47.947Z,42.67
2023-02-06T02:53:14.997Z,57.25
2023-02-06T02:55:42.305Z,49.42
2023-02-06T02:58:26.602Z,49.75
2023-02-06T03:01:04.546Z,48.22
2023-02-06T03:03:33.169Z,49.40
2023-02-06T03:06:37.309Z,52.85
2023-02-06T03:09:22.357Z,52.70
2023-02-06T03:12:08.563Z,52.60
2023-02-06T03:14:46.238Z,45.40
2023-02-06T03:17:19.524Z,46.22
2023-02-06T03:19:52.387Z,53.40
2023-02-06T03:22:21.378Z,50.42
2023-02-06T03:24:50.767Z,45.85
2023-02-06T03:27:19.002Z,63.65
2023-02-06T03:29:49.366Z,51.35
2023-02-06T03:32:18.841Z,43.33
2023-02-06T03:34:48.272Z,48.17
2023-02-06T03:37:16.305Z,47.28
2023-02-06T03:39:43.770Z,56.72
2023-02-06T03:42:12.155Z,44.22
2023-02-06T03:44:41.964Z,47.30
2023-02-06T03:47:11.593Z,48.95
2023-02-06T03:49:40.772Z,50.88
2023-02-06T03:52:11.024Z,45.67
2023-02-06T03:54:42.721Z,44.67
2023-02-06T03:57:12.915Z,47.58
2023-02-06T03:59:39.960Z,39.05
2023-02-06T04:02:07.193Z,40.17
2023-02-06T04:04:41.905Z,40.47
2023-02-06T04:07:29.951Z,46.35
2023-02-06T04:09:56.937Z,44.90
2023-02-06T04:12:24.539Z,51.33
2023-02-06T04:14:51.722Z,44.40
2023-02-06T04:17:38.556Z,49.25
2023-02-06T04:20:06.850Z,45.72
2023-02-06T04:22:33.666Z,47.50
2023-02-06T04:25:00.443Z,43.92
2023-02-06T04:27:27.541Z,47.75
2023-02-06T04:29:54.358Z,49.88
2023-02-06T04:32:21.272Z,45.03
2023-02-06T04:34:48.067Z,56.38
2023-02-06T04:37:14.823Z,53.65
2023-02-06T04:39:41.960Z,44.47
2023-02-06T04:42:08.819Z,46.15
2023-02-06T04:44:35.827Z,47.00
2023-02-06T04:47:03.353Z,47.85
2023-02-06T04:49:30.196Z,48.63
2023-02-06T04:51:57.184Z,42.92
2023-02-06T04:54:23.983Z,44.88
2023-02-06T04:56:50.775Z,52.72
2023-02-06T04:59:17.635Z,50.40
2023-02-06T05:01:44.482Z,46.28
2023-02-06T05:04:11.276Z,38.28
2023-02-06T05:06:38.078Z,48.75
2023-02-06T05:09:05.590Z,40.22
2023-02-06T05:11:32.415Z,41.80
2023-02-06T05:14:02.084Z,53.88
2023-02-06T05:16:29.046Z,49.60
2023-02-06T05:18:57.181Z,38.97
2023-02-06T05:21:24.953Z,44.85
2023-02-06T05:23:51.852Z,47.38
2023-02-06T05:26:20.378Z,53.20
2023-02-06T05:28:47.443Z,50.22
2023-02-06T05:31:20.068Z,45.33
2023-02-06T05:33:52.565Z,51.80
2023-02-06T05:36:20.728Z,47.45
2023-02-06T05:38:48.514Z,45.65
2023-02-06T05:41:15.987Z,39.20
2023-02-06T05:43:42.946Z,39.83
2023-02-06T05:46:09.762Z,45.15
2023-02-06T05:48:36.690Z,39.80
2023-02-06T05:51:03.745Z,43.88
2023-02-06T05:53:30.945Z,48.88
2023-02-06T05:55:58.077Z,44.35
2023-02-06T05:58:24.887Z,34.90
2023-02-06T06:00:51.746Z,54.28
2023-02-06T06:03:19.908Z,41.22
2023-02-06T06:05:46.924Z,33.85
2023-02-06T06:08:13.756Z,46.80
2023-02-06T06:10:40.630Z,39.67
2023-02-06T06:13:08.430Z,44.05
2023-02-06T06:15:35.384Z,40.55
2023-02-06T06:18:02.636Z,36.78
2023-02-06T06:20:29.588Z,36.58
2023-02-06T06:22:56.324Z,46.10
2023-02-06T06:25:23.140Z,37.70
2023-02-06T06:27:49.965Z,48.95
2023-02-06T06:30:17.044Z,30.27
2023-02-06T06:32:43.783Z,38.65
2023-02-06T06:35:10.719Z,41.42
2023-02-06T06:37:37.523Z,34.35
2023-02-06T06:40:04.606Z,29.25
2023-02-06T06:42:31.383Z,31.00
2023-02-06T06:44:58.745Z,37.75
2023-02-06T06:47:25.861Z,35.65
2023-02-06T06:49:52.666Z,35.30
2023-02-06T06:52:25.076Z,37.15
2023-02-06T06:54:53.187Z,42.60
2023-02-06T06:57:21.593Z,33.65
2023-02-06T06:59:48.754Z,43.05
2023-02-06T07:02:16.112Z,40.25
2023-02-06T07:04:43.337Z,31.95
2023-02-06T07:07:10.176Z,43.08
2023-02-06T07:09:37.032Z,34.70
2023-02-06T07:12:04.086Z,38.80
2023-02-06T07:14:30.930Z,45.67
2023-02-06T07:16:59.240Z,38.90
2023-02-06T07:19:26.088Z,44.90
2023-02-06T07:21:52.870Z,39.88
2023-02-06T07:24:19.730Z,49.83
2023-02-06T07:26:46.507Z,45.72
2023-02-06T07:29:13.315Z,44.28
2023-02-06T07:31:40.120Z,42.03
2023-02-06T07:34:06.923Z,48.63
2023-02-06T07:36:33.850Z,54.60
2023-02-06T07:39:02.694Z,40.50
2023-02-06T07:41:29.476Z,40.42
2023-02-06T07:43:56.247Z,33.00
2023-02-06T07:46:23.237Z,47.03
2023-02-06T07:48:50.096Z,51.40
2023-02-06T07:51:16.981Z,40.75
2023-02-06T07:53:43.769Z,38.53
2023-02-06T07:56:15.635Z,43.72
2023-02-06T07:58:42.851Z,34.55
2023-02-06T08:01:10.081Z,42.22
2023-02-06T08:03:37.151Z,38.75
2023-02-06T08:06:14.961Z,38.80
2023-02-06T08:08:42.617Z,45.92
2023-02-06T08:11:19.283Z,41.00
2023-02-06T08:13:47.339Z,45.20
2023-02-06T08:16:17.342Z,46.38
2023-02-06T08:18:44.508Z,45.33
2023-02-06T08:21:14.658Z,53.63
2023-02-06T08:23:42.379Z,53.97
2023-02-06T08:26:18.339Z,45.95
2023-02-06T08:28:47.576Z,45.55
2023-02-06T08:31:31.157Z,42.60
2023-02-06T08:33:58.068Z,40.40
2023-02-06T08:36:25.779Z,51.00
2023-02-06T08:38:53.168Z,41.55
2023-02-06T08:41:25.633Z,39.05
2023-02-06T08:43:55.752Z,54.03
2023-02-06T08:46:24.457Z,38.03
2023-02-06T08:49:04.837Z,40.65
2023-02-06T08:51:33.508Z,41.30
2023-02-06T08:54:03.053Z,40.67
2023-02-06T08:56:31.346Z,46.13
2023-02-06T08:59:02.248Z,43.22
2023-02-06T09:01:31.504Z,48.28
2023-02-06T09:04:00.786Z,39.03
2023-02-06T09:06:28.498Z,41.90
2023-02-06T09:08:57.006Z,36.03
2023-02-06T09:11:25.787Z,38.33
2023-02-06T09:13:55.995Z,38.17
2023-02-06T09:16:23.504Z,43.35
2023-02-06T09:18:53.866Z,51.80
2023-02-06T09:21:23.691Z,50.75
2023-02-06T09:23:53.513Z,47.30
2023-02-06T09:26:23.916Z,40.13
2023-02-06T09:28:55.214Z,40.78
2023-02-06T09:31:22.132Z,39.03
2023-02-06T09:33:49.395Z,52.28
2023-02-06T09:36:19.115Z,42.40
2023-02-06T09:38:49.070Z,43.92
2023-02-06T09:41:18.723Z,45.38
2023-02-06T09:43:51.801Z,50.70
2023-02-06T09:46:23.389Z,37.72
2023-02-06T09:48:51.315Z,46.60
2023-02-06T09:51:25.759Z,41.58
2023-02-06T09:54:05.906Z,42.60
2023-02-06T09:56:57.527Z,41.72
2023-02-06T09:59:43.406Z,35.08
2023-02-06T10:02:28.104Z,46.13
2023-02-06T10:05:15.843Z,40.42
2023-02-06T10:08:03.969Z,44.97
2023-02-06T10:10:40.820Z,45.60
2023-02-06T10:13:23.054Z,43.45
2023-02-06T10:15:55.118Z,40.67
2023-02-06T10:18:39.526Z,45.03
2023-02-06T10:21:26.881Z,49.30
2023-02-06T10:24:09.835Z,39.25
2023-02-06T10:26:39.718Z,38.78
2023-02-06T10:29:16.885Z,47.13
2023-02-06T10:32:02.725Z,42.50
2023-02-06T10:34:35.719Z,41.88
2023-02-06T10:37:14.923Z,37.28
2023-02-06T10:39:54.058Z,39.42
2023-02-06T10:42:45.629Z,36.60
2023-02-06T10:45:39.063Z,40.53
2023-02-06T10:48:34.119Z,42.55
2023-02-06T10:51:15.993Z,47.70
2023-02-06T10:53:56.185Z,37.88
2023-02-06T10:56:27.324Z,53.10
2023-02-06T10:58:59.935Z,48.03
2023-02-06T11:01:30.816Z,43.95
2023-02-06T11:04:15.026Z,51.78
2023-02-06T11:06:43.027Z,47.00
2023-02-06T11:09:10.649Z,63.95
2023-02-06T11:11:41.628Z,47.67
2023-02-06T11:14:30.255Z,43.55
2023-02-06T11:17:00.132Z,38.65
2023-02-06T11:19:33.639Z,37.53
2023-02-06T11:22:14.936Z,55.95
2023-02-06T11:25:03.793Z,50.03
2023-02-06T11:27:33.472Z,44.78
2023-02-06T11:30:23.641Z,43.42
2023-02-06T11:33:04.285Z,48.92
2023-02-06T11:35:37.609Z,32.97
2023-02-06T11:38:27.572Z,46.72
2023-02-06T11:41:07.026Z,44.58
2023-02-06T11:43:52.078Z,47.80
2023-02-06T11:46:30.980Z,43.25
2023-02-06T11:49:00.552Z,35.80
2023-02-06T11:51:47.149Z,43.10
2023-02-06T11:54:29.227Z,34.80
2023-02-06T11:57:23.201Z,39.58
2023-02-06T11:59:53.784Z,39.08
2023-02-06T12:02:28.541Z,38.33
2023-02-06T12:05:13.667Z,35.08
2023-02-06T12:07:45.378Z,36.33
2023-02-06T12:10:17.277Z,41.13
2023-02-06T12:13:08.732Z,27.48
2023-02-06T12:15:53.336Z,28.67
2023-02-06T12:18:34.876Z,28.30
2023-02-06T12:21:20.626Z,24.10
2023-02-06T12:23:55.995Z,24.70
2023-02-06T12:26:27.632Z,33.35
2023-02-06T12:29:15.232Z,31.08
2023-02-06T12:32:06.434Z,26.88
2023-02-06T12:34:54.043Z,23.40
2023-02-06T12:37:32.168Z,27.08
2023-02-06T12:40:00.162Z,36.08
2023-02-06T12:42:38.359Z,35.22
2023-02-06T12:45:39.696Z,39.70
2023-02-06T12:48:23.816Z,28.42
2023-02-06T12:51:30.010Z,33.65
2023-02-06T12:54:00.453Z,41.67
2023-02-06T12:56:42.532Z,37.80
2023-02-06T12:59:09.273Z,31.50
2023-02-06T13:01:58.156Z,39.28
2023-02-06T13:04:28.144Z,33.05
2023-02-06T13:06:59.252Z,38.78
2023-02-06T13:09:36.847Z,36.53
2023-02-06T13:12:25.235Z,42.00
2023-02-06T13:14:56.953Z,43.47
2023-02-06T13:17:38.138Z,46.72
2023-02-06T13:20:13.410Z,50.53
2023-02-06T13:22:43.085Z,49.90
2023-02-06T13:25:28.607Z,42.95
2023-02-06T13:27:56.999Z,49.65
2023-02-06T13:30:30.321Z,46.65
2023-02-06T13:33:19.629Z,45.15
2023-02-06T13:36:09.873Z,44.03
2023-02-06T13:38:38.816Z,51.67
2023-02-06T13:41:14.603Z,46.20
2023-02-06T13:44:11.570Z,45.25
2023-02-06T13:46:47.786Z,46.38
2023-02-06T13:49:52.309Z,68.05
2023-02-06T13:52:39.002Z,46.92
2023-02-06T13:55:20.902Z,40.83
2023-02-06T13:58:12.427Z,49.72
2023-02-06T14:00:43.453Z,44.78
2023-02-06T14:03:21.898Z,37.88
2023-02-06T14:06:08.207Z,35.92
2023-02-06T14:09:07.175Z,50.22
2023-02-06T14:12:03.261Z,54.20
2023-02-06T14:14:55.903Z,64.68
2023-02-06T14:17:50.022Z,52.40
2023-02-06T14:20:21.097Z,45.22
2023-02-06T14:23:12.536Z,50.85
2023-02-06T14:26:03.476Z,50.58
2023-02-06T14:28:57.621Z,55.60
2023-02-06T14:31:46.604Z,52.08
2023-02-06T14:34:28.416Z,53.95
2023-02-06T14:37:24.240Z,54.88
2023-02-06T14:39:52.668Z,58.30
2023-02-06T14:42:37.394Z,59.58
2023-02-06T14:45:33.838Z,50.63
2023-02-06T14:48:07.074Z,46.78
2023-02-06T14:50:37.778Z,56.05
2023-02-06T14:53:16.836Z,49.08
2023-02-06T14:55:47.066Z,57.85
2023-02-06T14:58:32.131Z,58.50
2023-02-06T15:01:20.587Z,61.10
2023-02-06T15:03:49.816Z,67.05
2023-02-06T15:06:28.643Z,58.22
2023-02-06T15:08:55.946Z,72.07
2023-02-06T15:11:32.376Z,67.05
2023-02-06T15:14:02.702Z,66.45
2023-02-06T15:16:30.613Z,79.40
2023-02-06T15:19:21.476Z,74.07
2023-02-06T15:21:50.044Z,69.88
2023-02-06T15:24:34.937Z,66.07
2023-02-06T15:27:30.202Z,69.15
2023-02-06T15:29:58.001Z,77.30
2023-02-06T15:32:37.939Z,70.32
2023-02-06T15:35:22.689Z,64.15
2023-02-06T15:37:49.835Z,67.25
2023-02-06T15:40:39.122Z,76.15
2023-02-06T15:43:06.483Z,63.78
2023-02-06T15:45:37.312Z,70.80
2023-02-06T15:48:27.731Z,60.47
2023-02-06T15:50:58.972Z,72.82
2023-02-06T15:53:35.651Z,70.70
2023-02-06T15:56:05.647Z,66.63
2023-02-06T15:58:33.666Z,67.53
2023-02-06T16:01:02.070Z,78.13
2023-02-06T16:03:30.250Z,80.68
2023-02-06T16:05:57.811Z,71.30
2023-02-06T16:08:30.192Z,77.55
2023-02-06T16:11:04.108Z,82.25
2023-02-06T16:13:33.345Z,80.07
2023-02-06T16:16:08.460Z,79.55
2023-02-06T16:18:40.298Z,75.30
2023-02-06T16:21:16.420Z,92.70
2023-02-06T16:24:03.393Z,81.32
2023-02-06T16:26:43.058Z,87.43
2023-02-06T16:29:09.783Z,73.55
2023-02-06T16:31:42.898Z,80.85
2023-02-06T16:34:28.333Z,83.28
2023-02-06T16:36:55.159Z,82.35
2023-02-06T16:39:23.602Z,95.32
2023-02-06T16:41:52.895Z,82.90
2023-02-06T16:44:20.514Z,93.63
2023-02-06T16:46:47.344Z,81.70
2023-02-06T16:49:18.031Z,85.88
2023-02-06T16:51:46.084Z,92.57
2023-02-06T16:54:20.711Z,77.68
2023-02-06T16:56:47.877Z,101.53
2023-02-06T16:59:14.755Z,88.07
2023-02-06T17:01:41.798Z,80.35
2023-02-06T17:04:08.626Z,88.00
2023-02-06T17:06:36.117Z,74.82
2023-02-06T17:09:08.965Z,91.45
2023-02-06T17:11:36.827Z,76.72
2023-02-06T17:14:04.476Z,77.60
2023-02-06T17:16:32.084Z,83.03
2023-02-06T17:18:58.962Z,84.13
2023-02-06T17:21:28.771Z,74.47
2023-02-06T17:23:55.620Z,85.57
2023-02-06T17:26:23.692Z,76.55
2023-02-06T17:28:51.753Z,87.60
2023-02-06T17:31:19.600Z,97.97
2023-02-06T17:33:46.417Z,89.38
2023-02-06T17:36:26.892Z,73.53
2023-02-06T17:38:53.681Z,96.53
2023-02-06T17:41:20.413Z,78.40
2023-02-06T17:43:47.213Z,89.22
2023-02-06T17:46:14.193Z,86.85
2023-02-06T17:48:43.261Z,79.20
2023-02-06T17:51:11.202Z,88.75
2023-02-06T17:53:38.360Z,73.82
2023-02-06T17:56:12.702Z,67.57
2023-02-06T17:58:43.500Z,81.88
2023-02-06T18:01:12.298Z,78.60
2023-02-06T18:03:39.453Z,87.43
2023-02-06T18:06:06.518Z,78.90
2023-02-06T18:08:33.335Z,77.13
2023-02-06T18:11:00.498Z,76.22
2023-02-06T18:13:28.537Z,79.32
2023-02-06T18:15:57.246Z,75.00
2023-02-06T18:18:26.067Z,74.57
2023-02-06T18:20:52.806Z,69.35
2023-02-06T18:23:19.710Z,76.05
2023-02-06T18:25:46.515Z,74.35
2023-02-06T18:28:14.818Z,71.55
2023-02-06T18:30:42.372Z,65.93
2023-02-06T18:33:11.338Z,68.95
2023-02-06T18:35:44.974Z,93.13
2023-02-06T18:38:15.399Z,85.57
2023-02-06T18:40:45.610Z,79.70
2023-02-06T18:43:14.257Z,63.85
2023-02-06T18:45:42.728Z,94.00
2023-02-06T18:48:13.139Z,70.65
2023-02-06T18:50:42.498Z,80.93
2023-02-06T18:53:09.636Z,72.53
2023-02-06T18:55:37.380Z,84.95
2023-02-06T18:58:07.303Z,78.28
2023-02-06T19:00:35.891Z,75.63
2023-02-06T19:03:03.476Z,77.72
2023-02-06T19:05:34.624Z,74.22
2023-02-06T19:08:01.427Z,74.70
2023-02-06T19:10:29.280Z,79.53
2023-02-06T19:12:56.096Z,84.50
2023-02-06T19:15:22.860Z,71.45
2023-02-06T19:17:50.228Z,97.13
2023-02-06T19:20:17.166Z,75.68
2023-02-06T19:22:44.052Z,93.43
2023-02-06T19:25:14.250Z,81.78
2023-02-06T19:27:41.622Z,86.28
2023-02-06T19:30:09.456Z,75.70
2023-02-06T19:32:36.679Z,88.50
2023-02-06T19:35:04.414Z,91.82
2023-02-06T19:37:31.547Z,85.40
2023-02-06T19:39:58.364Z,94.13
2023-02-06T19:42:25.244Z,82.45
2023-02-06T19:44:54.803Z,87.75
2023-02-06T19:47:21.995Z,81.15
2023-02-06T19:49:52.913Z,82.93
2023-02-06T19:52:20.310Z,81.05
2023-02-06T19:54:47.929Z,76.97
2023-02-06T19:57:16.036Z,93.43
2023-02-06T19:59:43.166Z,89.20
2023-02-06T20:02:13.369Z,93.60
2023-02-06T20:04:40.421Z,87.40
2023-02-06T20:07:07.426Z,92.00
2023-02-06T20:09:34.392Z,91.85
2023-02-06T20:12:01.324Z,102.47
2023-02-06T20:14:28.257Z,86.82
2023-02-06T20:16:55.601Z,84.00
2023-02-06T20:19:26.904Z,101.53
2023-02-06T20:21:57.077Z,91.03
2023-02-06T20:24:27.858Z,97.38
2023-02-06T20:26:58.570Z,79.80
2023-02-06T20:29:31.989Z,90.90
2023-02-06T20:31:59.853Z,93.05
2023-02-06T20:34:27.559Z,76.50
2023-02-06T20:36:55.350Z,83.30
2023-02-06T20:39:22.413Z,94.55
2023-02-06T20:41:50.426Z,88.25
2023-02-06T20:44:18.521Z,87.30
2023-02-06T20:46:46.397Z,95.85
2023-02-06T20:49:22.597Z,86.85
2023-02-06T20:51:50.225Z,92.70
2023-02-06T20:54:19.245Z,96.57
2023-02-06T20:56:46.354Z,97.43
2023-02-06T20:59:15.175Z,112.18
2023-02-06T21:01:42.999Z,98.80
2023-02-06T21:04:12.268Z,107.10
2023-02-06T21:06:40.106Z,98.75
2023-02-06T21:09:08.443Z,111.78
2023-02-06T21:11:40.778Z,100.93
2023-02-06T21:14:08.404Z,107.25
2023-02-06T21:16:37.535Z,93.32
2023-02-06T21:19:06.703Z,112.55
2023-02-06T21:21:33.611Z,94.25
2023-02-06T21:24:00.638Z,94.57
2023-02-06T21:26:28.506Z,84.28
2023-02-06T21:28:55.495Z,102.82
2023-02-06T21:31:34.140Z,96.65
2023-02-06T21:34:07.258Z,99.25
2023-02-06T21:36:36.601Z,104.53
2023-02-06T21:39:04.071Z,86.97
2023-02-06T21:41:31.106Z,100.82
2023-02-06T21:43:58.519Z,97.75
2023-02-06T21:46:26.268Z,97.45
2023-02-06T21:48:54.866Z,90.50
2023-02-06T21:51:23.310Z,93.80
2023-02-06T21:53:50.277Z,103.90
2023-02-06T21:56:20.807Z,116.55
2023-02-06T21:58:48.780Z,111.75
2023-02-06T22:01:17.809Z,106.95
2023-02-06T22:03:45.838Z,116.75
2023-02-06T22:06:13.762Z,107.90
2023-02-06T22:08:48.104Z,87.28
2023-02-06T22:11:17.638Z,83.72
2023-02-06T22:13:45.770Z,91.70
2023-02-06T22:16:14.126Z,100.70
2023-02-06T22:18:41.442Z,94.40
2023-02-06T22:21:19.366Z,92.72
2023-02-06T22:23:47.608Z,100.47
2023-02-06T22:26:17.051Z,95.80
2023-02-06T22:28:44.739Z,97.28
2023-02-06T22:31:21.426Z,81.63
2023-02-06T22:33:49.362Z,92.57
2023-02-06T22:36:19.061Z,84.80
2023-02-06T22:38:47.137Z,99.00
2023-02-06T22:41:16.819Z,91.75
2023-02-06T22:43:45.692Z,87.78
2023-02-06T22:46:25.009Z,82.80
2023-02-06T22:48:52.077Z,84.57
2023-02-06T22:51:19.584Z,87.45
2023-02-06T22:53:46.905Z,76.78
2023-02-06T22:56:31.136Z,78.50
2023-02-06T22:59:27.197Z,84.55
2023-02-06T23:01:57.739Z,78.32
2023-02-06T23:04:30.278Z,87.13
2023-02-06T23:06:57.468Z,90.03
2023-02-06T23:09:27.092Z,80.40
2023-02-06T23:11:55.260Z,83.05
2023-02-06T23:14:22.069Z,83.35
2023-02-06T23:16:49.360Z,76.15
2023-02-06T23:19:31.427Z,73.72
2023-02-06T23:21:58.373Z,78.85
2023-02-06T23:24:25.326Z,80.50
2023-02-06T23:26:53.758Z,74.20
2023-02-06T23:29:21.947Z,73.80
2023-02-06T23:31:49.323Z,68.72
2023-02-06T23:34:17.753Z,68.63
2023-02-06T23:36:46.093Z,70.70
2023-02-06T23:39:13.165Z,74.03
2023-02-06T23:41:40.105Z,77.28
2023-02-06T23:44:08.254Z,68.20
2023-02-06T23:46:37.813Z,59.30
2023-02-06T23:49:06.496Z,58.90
2023-02-06T23:51:33.785Z,58.30
2023-02-06T23:54:00.565Z,64.75
2023-02-06T23:56:29.360Z,60.95
2023-02-06T23:58:57.393Z,64.93
